createdAt,value
2022-08-01T00:01:59.005Z,22.09
2022-08-01T00:04:26.924Z,22.07
2022-08-01T00:06:54.754Z,22.13
2022-08-01T00:09:24.244Z,22.16
2022-08-01T00:11:59.818Z,22.15
2022-08-01T00:14:32.184Z,22.15
2022-08-01T00:17:05.389Z,22.14
2022-08-01T00:19:34.893Z,22.11
2022-08-01T00:22:02.869Z,22.08
2022-08-01T00:26:58.984Z,22.06
2022-08-01T00:30:12.533Z,22.06
2022-08-01T00:32:16.128Z,21.94
2022-08-01T00:34:44.020Z,21.85
2022-08-01T00:37:15.955Z,21.88
2022-08-01T00:39:44.099Z,21.85
2022-08-01T00:42:13.702Z,21.83
2022-08-01T00:44:42.193Z,21.83
2022-08-01T00:47:10.323Z,21.80
2022-08-01T00:49:39.712Z,21.81
2022-08-01T00:54:36.363Z,21.63
2022-08-01T00:57:05.158Z,21.62
2022-08-01T01:02:15.312Z,21.47
2022-08-01T01:04:45.309Z,21.38
2022-08-01T01:09:54.567Z,21.26
2022-08-01T01:12:29.977Z,21.18
2022-08-01T01:15:10.475Z,21.14
2022-08-01T01:17:50.254Z,21.13
2022-08-01T01:20:26.386Z,21.01
2022-08-01T01:25:49.633Z,20.82
2022-08-01T01:30:59.353Z,20.75
2022-08-01T01:36:07.594Z,20.62
2022-08-01T01:41:13.725Z,20.58
2022-08-01T01:46:14.597Z,20.48
2022-08-01T01:48:45.739Z,20.43
2022-08-01T01:53:44.476Z,20.42
2022-08-01T01:56:13.692Z,20.35
2022-08-01T01:58:42.375Z,20.31
2022-08-01T02:06:15.610Z,20.23
2022-08-01T02:08:44.618Z,20.16
2022-08-01T02:11:22.344Z,20.06
2022-08-01T02:13:56.274Z,20.05
2022-08-01T02:16:29.781Z,20.04
2022-08-01T02:18:58.162Z,20.03
2022-08-01T02:21:30.052Z,19.95
2022-08-01T02:24:06.050Z,20.05
2022-08-01T02:26:35.922Z,20.18
2022-08-01T02:29:12.617Z,20.14
2022-08-01T02:31:48.039Z,20.18
2022-08-01T02:34:20.462Z,19.96
2022-08-01T02:36:50.251Z,19.94
2022-08-01T02:39:21.624Z,19.83
2022-08-01T02:41:52.248Z,19.74
2022-08-01T02:44:26.141Z,19.65
2022-08-01T02:49:35.097Z,19.50
2022-08-01T02:54:36.083Z,19.48
2022-08-01T02:57:06.754Z,19.47
2022-08-01T02:59:38.316Z,19.44
2022-08-01T03:02:12.956Z,19.52
2022-08-01T03:04:42.712Z,19.44
2022-08-01T03:07:12.731Z,19.41
2022-08-01T03:09:43.496Z,19.42
2022-08-01T03:14:44.228Z,19.42
2022-08-01T03:17:14.493Z,19.46
2022-08-01T03:19:43.632Z,19.45
2022-08-01T03:22:14.930Z,19.47
2022-08-01T03:24:44.736Z,19.46
2022-08-01T03:27:14.043Z,19.41
2022-08-01T03:29:43.743Z,19.31
2022-08-01T03:32:14.947Z,19.26
2022-08-01T03:34:43.623Z,19.28
2022-08-01T03:37:16.946Z,19.17
2022-08-01T03:39:49.337Z,19.23
2022-08-01T03:47:31.966Z,19.16
2022-08-01T03:50:01.320Z,19.21
2022-08-01T03:55:03.722Z,19.18
2022-08-01T03:57:36.680Z,19.17
2022-08-01T04:00:09.906Z,19.28
2022-08-01T04:02:40.772Z,19.33
2022-08-01T04:05:09.563Z,19.25
2022-08-01T04:07:37.974Z,19.20
2022-08-01T04:10:06.885Z,19.24
2022-08-01T04:15:04.342Z,19.24
2022-08-01T04:17:32.182Z,19.18
2022-08-01T04:20:01.412Z,19.35
2022-08-01T04:22:29.380Z,19.36
2022-08-01T04:24:59.661Z,19.44
2022-08-01T04:27:50.509Z,19.43
2022-08-01T04:30:24.376Z,19.48
2022-08-01T04:32:55.596Z,19.52
2022-08-01T04:43:16.880Z,19.49
2022-08-01T04:48:15.545Z,19.61
2022-08-01T04:50:45.381Z,19.65
2022-08-01T04:53:17.822Z,19.56
2022-08-01T04:55:46.969Z,19.65
2022-08-01T05:03:14.424Z,20.07
2022-08-01T05:05:42.354Z,20.12
2022-08-01T05:08:11.578Z,20.37
2022-08-01T05:10:39.572Z,20.45
2022-08-01T05:13:07.563Z,20.52
2022-08-01T05:18:04.992Z,20.52
2022-08-01T05:20:35.642Z,20.69
2022-08-01T05:28:20.930Z,21.02
2022-08-01T05:30:48.767Z,21.08
2022-08-01T05:33:16.635Z,21.07
2022-08-01T05:35:47.900Z,20.99
2022-08-01T05:38:16.982Z,20.95
2022-08-01T05:40:46.389Z,21.07
2022-08-01T05:43:14.260Z,21.12
2022-08-01T05:45:42.908Z,21.07
2022-08-01T05:48:10.708Z,21.00
2022-08-01T05:50:38.612Z,21.18
2022-08-01T05:53:06.563Z,21.14
2022-08-01T05:55:34.374Z,21.20
2022-08-01T05:58:03.722Z,21.06
2022-08-01T06:00:31.557Z,21.16
2022-08-01T06:02:59.887Z,21.04
2022-08-01T06:05:27.724Z,21.18
2022-08-01T06:07:55.721Z,21.27
2022-08-01T06:10:23.836Z,21.27
2022-08-01T06:12:51.735Z,21.31
2022-08-01T06:15:21.028Z,21.40
2022-08-01T06:20:16.973Z,21.43
2022-08-01T06:22:44.796Z,21.56
2022-08-01T06:25:21.338Z,21.50
2022-08-01T06:27:49.411Z,21.63
2022-08-01T06:30:17.423Z,21.53
2022-08-01T06:32:46.668Z,21.61
2022-08-01T06:35:14.502Z,21.77
2022-08-01T06:37:42.399Z,21.92
2022-08-01T06:40:16.891Z,21.84
2022-08-01T06:42:46.844Z,21.98
2022-08-01T06:45:15.981Z,22.04
2022-08-01T06:47:50.659Z,22.01
2022-08-01T06:50:19.000Z,22.26
2022-08-01T06:52:47.213Z,22.25
2022-08-01T06:55:15.612Z,22.25
2022-08-01T06:57:50.800Z,22.35
2022-08-01T07:00:23.329Z,22.40
2022-08-01T07:02:52.802Z,22.30
2022-08-01T07:05:21.281Z,22.37
2022-08-01T07:07:49.131Z,22.69
2022-08-01T07:10:17.081Z,22.68
2022-08-01T07:12:45.384Z,22.60
2022-08-01T07:15:14.887Z,22.71
2022-08-01T07:17:44.235Z,22.71
2022-08-01T07:20:16.185Z,23.11
2022-08-01T07:22:47.641Z,23.56
2022-08-01T07:27:44.659Z,23.59
2022-08-01T07:30:13.170Z,23.36
2022-08-01T07:32:41.030Z,23.18
2022-08-01T07:35:09.477Z,23.29
2022-08-01T07:37:42.170Z,23.64
2022-08-01T07:40:17.054Z,23.92
2022-08-01T07:45:14.826Z,24.51
2022-08-01T07:50:11.152Z,25.93
2022-08-01T07:52:40.577Z,26.29
2022-08-01T08:00:07.916Z,25.89
2022-08-01T08:02:35.839Z,25.73
2022-08-01T08:05:04.922Z,25.32
2022-08-01T08:07:33.533Z,25.13
2022-08-01T08:10:02.765Z,25.11
2022-08-01T08:12:30.649Z,25.90
2022-08-01T08:15:00.027Z,25.89
2022-08-01T08:17:27.906Z,25.44
2022-08-01T08:22:23.725Z,24.47
2022-08-01T08:24:51.565Z,24.48
2022-08-01T08:27:20.999Z,25.00
2022-08-01T08:29:48.836Z,26.02
2022-08-01T08:34:45.388Z,26.71
2022-08-01T08:37:13.871Z,26.80
2022-08-01T08:39:42.677Z,26.79
2022-08-01T08:42:11.550Z,25.69
2022-08-01T08:44:43.845Z,24.73
2022-08-01T08:47:19.423Z,24.71
2022-08-01T08:49:49.412Z,24.73
2022-08-01T08:52:17.895Z,24.39
2022-08-01T08:54:47.755Z,25.27
2022-08-01T08:57:16.618Z,25.92
2022-08-01T08:59:47.522Z,26.21
2022-08-01T09:02:15.394Z,27.51
2022-08-01T09:04:43.426Z,26.83
2022-08-01T09:07:12.823Z,26.25
2022-08-01T09:09:41.799Z,25.67
2022-08-01T09:12:10.991Z,25.55
2022-08-01T09:14:48.472Z,25.67
2022-08-01T09:17:17.453Z,25.77
2022-08-01T09:19:48.664Z,25.77
2022-08-01T09:22:19.691Z,25.78
2022-08-01T09:25:00.963Z,26.13
2022-08-01T09:27:28.890Z,26.00
2022-08-01T09:30:09.960Z,25.72
2022-08-01T09:32:45.907Z,26.01
2022-08-01T09:38:15.436Z,26.00
2022-08-01T09:40:47.355Z,26.35
2022-08-01T09:43:17.344Z,27.33
2022-08-01T09:45:49.199Z,26.90
2022-08-01T09:48:18.945Z,27.06
2022-08-01T09:50:48.072Z,27.15
2022-08-01T09:56:11.846Z,26.53
2022-08-01T09:58:58.979Z,26.60
2022-08-01T10:09:10.205Z,27.85
2022-08-01T10:11:40.234Z,28.79
2022-08-01T10:14:09.024Z,28.99
2022-08-01T10:16:38.978Z,28.99
2022-08-01T10:19:14.845Z,27.88
2022-08-01T10:21:56.388Z,27.52
2022-08-01T10:24:29.380Z,26.71
2022-08-01T10:27:05.956Z,26.80
2022-08-01T10:29:45.612Z,27.43
2022-08-01T10:32:18.212Z,27.03
2022-08-01T10:34:47.712Z,26.67
2022-08-01T10:37:18.215Z,26.61
2022-08-01T10:39:46.980Z,26.58
2022-08-01T10:42:15.546Z,25.92
2022-08-01T10:44:48.190Z,26.42
2022-08-01T10:47:27.103Z,26.63
2022-08-01T10:50:21.831Z,26.92
2022-08-01T10:53:15.200Z,28.20
2022-08-01T10:55:53.362Z,28.97
2022-08-01T10:58:28.219Z,30.22
2022-08-01T11:23:28.444Z,28.33
2022-08-01T11:31:37.804Z,30.89
2022-08-01T11:36:58.525Z,29.62
2022-08-01T11:39:24.448Z,29.37
2022-08-01T11:41:53.698Z,29.24
2022-08-01T11:44:28.329Z,28.75
2022-08-01T11:47:08.722Z,28.28
2022-08-01T11:52:25.955Z,28.60
2022-08-01T11:54:55.772Z,28.63
2022-08-01T12:07:38.158Z,32.22
2022-08-01T12:12:37.836Z,32.99
2022-08-01T12:35:08.979Z,29.39
2022-08-01T12:37:38.217Z,29.00
2022-08-01T12:40:15.534Z,29.55
2022-08-01T12:42:44.897Z,29.34
2022-08-01T12:45:15.261Z,29.30
2022-08-01T12:50:15.139Z,28.96
2022-08-01T12:55:15.970Z,28.99
2022-08-01T12:57:46.681Z,29.27
2022-08-01T13:02:47.458Z,28.60
2022-08-01T13:07:50.107Z,29.12
2022-08-01T13:12:58.816Z,29.44
2022-08-01T13:20:34.973Z,28.87
2022-08-01T13:25:55.829Z,28.59
2022-08-01T13:48:29.322Z,28.71
2022-08-01T13:51:21.125Z,28.86
2022-08-01T13:53:45.937Z,28.60
2022-08-01T13:56:17.251Z,29.07
2022-08-01T13:58:45.340Z,30.40
2022-08-01T14:01:16.316Z,31.77
2022-08-01T14:13:48.536Z,31.57
2022-08-01T14:26:12.268Z,31.57
2022-08-01T14:33:38.490Z,30.92
2022-08-01T14:36:30.526Z,29.96
2022-08-01T14:46:19.978Z,30.81
2022-08-01T14:48:47.883Z,30.40
2022-08-01T14:58:42.627Z,30.17
2022-08-01T15:06:10.635Z,31.51
2022-08-01T15:11:06.901Z,33.14
2022-08-01T15:18:35.601Z,32.17
2022-08-01T15:21:04.226Z,32.29
2022-08-01T15:25:59.954Z,32.12
2022-08-01T15:30:55.878Z,31.65
2022-08-01T15:35:53.902Z,31.72
2022-08-01T15:40:50.719Z,31.06
2022-08-01T15:53:13.811Z,30.26
2022-08-01T15:58:11.542Z,29.86
2022-08-01T16:05:42.908Z,30.82
2022-08-01T16:08:11.304Z,30.81
2022-08-01T16:15:37.615Z,29.57
2022-08-01T16:33:00.640Z,29.61
2022-08-01T16:35:45.014Z,29.57
2022-08-01T16:38:16.845Z,30.06
2022-08-01T16:43:17.063Z,29.30
2022-08-01T16:48:15.407Z,29.72
2022-08-01T16:50:44.418Z,29.49
2022-08-01T17:00:56.693Z,29.63
2022-08-01T17:06:14.445Z,29.58
2022-08-01T17:08:47.188Z,29.53
2022-08-01T17:16:16.224Z,29.90
2022-08-01T17:18:44.287Z,29.62
2022-08-01T17:23:40.506Z,28.41
2022-08-01T17:26:08.386Z,28.56
2022-08-01T17:33:44.770Z,27.83
2022-08-01T17:36:15.249Z,27.81
2022-08-01T17:38:43.321Z,27.63
2022-08-01T17:41:11.646Z,27.67
2022-08-01T17:51:06.568Z,27.33
2022-08-01T17:53:34.928Z,27.23
2022-08-01T17:56:05.841Z,27.16
2022-08-01T17:58:50.567Z,27.11
2022-08-01T18:03:49.870Z,27.22
2022-08-01T18:06:23.119Z,27.22
2022-08-01T18:08:53.202Z,27.17
2022-08-01T18:11:27.443Z,27.02
2022-08-01T18:13:56.487Z,26.94
2022-08-01T18:16:26.231Z,26.87
2022-08-01T18:18:55.842Z,26.96
2022-08-01T18:21:23.863Z,26.79
2022-08-01T18:26:21.085Z,26.71
2022-08-01T18:28:49.404Z,26.63
2022-08-01T18:33:49.987Z,26.49
2022-08-01T18:36:33.464Z,26.52
2022-08-01T18:39:04.520Z,26.59
2022-08-01T18:44:03.882Z,26.36
2022-08-01T18:46:35.756Z,26.17
2022-08-01T18:49:06.038Z,26.16
2022-08-01T18:54:02.118Z,25.98
2022-08-01T18:56:30.197Z,26.06
2022-08-01T19:01:26.134Z,25.94
2022-08-01T19:03:54.050Z,25.83
2022-08-01T19:06:24.790Z,25.83
2022-08-01T19:08:55.780Z,25.78
2022-08-01T19:11:26.241Z,25.72
2022-08-01T19:13:54.666Z,25.77
2022-08-01T19:16:23.383Z,25.59
2022-08-01T19:18:51.359Z,25.47
2022-08-01T19:24:06.454Z,25.32
2022-08-01T19:26:36.090Z,25.30
2022-08-01T19:29:10.503Z,25.29
2022-08-01T19:31:45.630Z,25.11
2022-08-01T19:34:18.429Z,25.09
2022-08-01T19:36:49.017Z,25.06
2022-08-01T19:39:21.782Z,24.95
2022-08-01T19:41:51.026Z,24.91
2022-08-01T19:44:20.697Z,24.83
2022-08-01T19:49:17.960Z,24.67
2022-08-01T19:51:50.262Z,24.55
2022-08-01T19:54:21.616Z,24.51
2022-08-01T19:56:51.932Z,24.39
2022-08-01T20:04:20.893Z,24.21
2022-08-01T20:09:20.094Z,24.13
2022-08-01T20:11:50.055Z,24.20
2022-08-01T20:14:20.977Z,24.14
2022-08-01T20:16:50.572Z,24.12
2022-08-01T20:19:19.733Z,24.11
2022-08-01T20:22:02.735Z,24.09
2022-08-01T20:24:39.567Z,23.96
2022-08-01T20:27:10.376Z,23.89
2022-08-01T20:29:39.106Z,23.86
2022-08-01T20:32:08.395Z,23.79
2022-08-01T20:34:38.279Z,23.73
2022-08-01T20:37:12.425Z,23.69
2022-08-01T20:39:45.018Z,23.54
2022-08-01T20:44:41.931Z,23.47
2022-08-01T20:49:38.783Z,23.33
2022-08-01T20:54:42.488Z,23.31
2022-08-01T20:57:23.727Z,23.13
2022-08-01T20:59:57.742Z,23.18
2022-08-01T21:02:38.132Z,23.07
2022-08-01T21:05:12.410Z,23.05
2022-08-01T21:07:45.735Z,22.99
2022-08-01T21:10:20.686Z,22.92
2022-08-01T21:13:03.132Z,22.92
2022-08-01T21:15:59.793Z,22.79
2022-08-01T21:18:39.230Z,22.75
2022-08-01T21:21:16.596Z,22.72
2022-08-01T21:23:55.524Z,22.60
2022-08-01T21:26:26.937Z,22.49
2022-08-01T21:29:01.925Z,22.46
2022-08-01T21:31:40.555Z,22.46
2022-08-01T21:34:10.052Z,22.47
2022-08-01T21:36:38.820Z,22.44
2022-08-01T21:39:08.597Z,22.33
2022-08-01T21:42:04.849Z,22.29
2022-08-01T21:44:30.172Z,22.23
2022-08-01T21:47:00.957Z,22.18
2022-08-01T21:49:29.493Z,22.15
2022-08-01T21:52:05.478Z,22.07
2022-08-01T21:54:45.453Z,22.00
2022-08-01T21:57:25.026Z,21.91
2022-08-01T22:00:04.324Z,21.85
2022-08-01T22:02:39.485Z,21.78
2022-08-01T22:05:09.793Z,21.74
2022-08-01T22:07:43.608Z,21.68
2022-08-01T22:10:16.247Z,21.68
2022-08-01T22:12:45.329Z,21.61
2022-08-01T22:15:15.559Z,21.60
2022-08-01T22:17:44.941Z,21.57
2022-08-01T22:20:13.995Z,21.53
2022-08-01T22:22:51.220Z,21.49
2022-08-01T22:25:20.789Z,21.43
2022-08-01T22:28:06.569Z,21.47
2022-08-01T22:30:42.337Z,21.42
2022-08-01T22:33:16.468Z,21.44
2022-08-01T22:35:47.000Z,21.43
2022-08-01T22:38:15.215Z,21.38
2022-08-01T22:43:26.325Z,21.36
2022-08-01T22:46:06.215Z,21.30
2022-08-01T22:48:42.731Z,21.33
2022-08-01T22:51:23.400Z,21.22
2022-08-01T22:53:58.427Z,21.31
2022-08-01T22:56:26.289Z,21.36
2022-08-01T22:58:56.868Z,21.27
2022-08-01T23:01:29.976Z,21.26
2022-08-01T23:04:00.503Z,21.20
2022-08-01T23:06:39.006Z,21.19
2022-08-01T23:09:08.220Z,21.18
2022-08-01T23:11:36.460Z,21.07
2022-08-01T23:14:04.940Z,20.99
2022-08-01T23:16:36.328Z,20.94
2022-08-01T23:19:04.884Z,20.84
2022-08-01T23:24:02.502Z,20.67
2022-08-01T23:28:59.548Z,20.65
2022-08-01T23:34:20.038Z,20.42
2022-08-01T23:36:48.058Z,20.34
2022-08-01T23:39:15.843Z,20.44
2022-08-01T23:41:57.947Z,20.45
2022-08-01T23:44:26.996Z,20.44
2022-08-01T23:46:55.011Z,20.30
2022-08-01T23:49:24.312Z,20.25
2022-08-01T23:51:52.382Z,20.28
2022-08-01T23:54:20.341Z,20.22
2022-08-01T23:56:48.520Z,20.27
